createdAt,value
2018-04-14T00:01:44.464Z,83.37
2018-04-14T00:04:12.763Z,77.17
2018-04-14T00:06:42.192Z,80.40
2018-04-14T00:09:11.355Z,84.83
2018-04-14T00:11:41.685Z,90.40
2018-04-14T00:14:09.962Z,86.40
2018-04-14T00:16:38.247Z,73.93
2018-04-14T00:19:08.292Z,78.73
2018-04-14T00:21:37.214Z,88.33
2018-04-14T00:24:05.490Z,81.00
2018-04-14T00:26:33.766Z,86.40
2018-04-14T00:29:02.406Z,79.50
2018-04-14T00:31:32.279Z,77.00
2018-04-14T00:34:00.548Z,72.40
2018-04-14T00:36:29.232Z,75.10
2018-04-14T00:38:59.011Z,84.37
2018-04-14T00:41:27.294Z,98.10
2018-04-14T00:43:55.561Z,95.90
2018-04-14T00:46:23.975Z,100.00
2018-04-14T00:48:52.329Z,85.13
2018-04-14T00:51:21.352Z,86.53
2018-04-14T00:53:51.243Z,92.90
2018-04-14T00:56:19.711Z,88.57
2018-04-14T00:58:48.838Z,76.50
2018-04-14T01:01:17.122Z,82.83
2018-04-14T01:03:45.417Z,75.70
2018-04-14T01:06:13.874Z,86.80
2018-04-14T01:08:42.153Z,81.17
2018-04-14T01:11:10.447Z,75.57
2018-04-14T01:13:38.821Z,87.33
2018-04-14T01:16:08.558Z,89.13
2018-04-14T01:18:36.870Z,94.30
2018-04-14T01:21:05.906Z,84.83
2018-04-14T01:23:34.184Z,79.10
2018-04-14T01:26:02.567Z,94.43
2018-04-14T01:28:30.900Z,86.60
2018-04-14T01:31:00.027Z,76.23
2018-04-14T01:33:29.970Z,89.07
2018-04-14T01:36:01.442Z,100.13
2018-04-14T01:38:32.583Z,99.27
2018-04-14T01:41:01.187Z,107.37
2018-04-14T01:43:30.234Z,108.97
2018-04-14T01:45:58.694Z,100.93
2018-04-14T01:48:27.041Z,122.00
2018-04-14T01:50:56.098Z,109.63
2018-04-14T01:53:24.689Z,112.80
2018-04-14T01:55:53.002Z,122.83
2018-04-14T01:58:22.055Z,132.17
2018-04-14T02:00:50.350Z,134.70
2018-04-14T02:03:18.795Z,134.97
2018-04-14T02:05:47.806Z,156.53
2018-04-14T02:08:16.090Z,150.13
2018-04-14T02:10:44.667Z,160.20
2018-04-14T02:13:13.175Z,168.47
2018-04-14T02:15:42.138Z,160.73
2018-04-14T02:18:10.454Z,188.00
2018-04-14T02:20:40.673Z,163.47
2018-04-14T02:23:10.042Z,159.20
2018-04-14T02:25:38.423Z,163.27
2018-04-14T02:28:06.722Z,155.37
2018-04-14T02:30:36.815Z,158.93
2018-04-14T02:33:05.099Z,169.53
2018-04-14T02:35:33.373Z,178.50
2018-04-14T02:38:02.433Z,154.57
2018-04-14T02:40:31.479Z,136.07
2018-04-14T02:43:00.132Z,138.93
2018-04-14T02:45:28.639Z,158.70
2018-04-14T02:47:57.030Z,132.87
2018-04-14T02:50:25.664Z,134.87
2018-04-14T02:52:55.032Z,153.83
2018-04-14T02:55:24.158Z,141.60
2018-04-14T02:57:53.463Z,143.47
2018-04-14T03:00:23.645Z,148.90
2018-04-14T03:02:51.930Z,146.17
2018-04-14T03:05:21.309Z,146.93
2018-04-14T03:07:50.099Z,157.93
2018-04-14T03:10:18.624Z,137.00
2018-04-14T03:12:47.785Z,160.47
2018-04-14T03:15:16.095Z,145.27
2018-04-14T03:17:45.103Z,131.30
2018-04-14T03:20:15.599Z,143.97
2018-04-14T03:22:43.945Z,136.67
2018-04-14T03:25:12.711Z,137.80
2018-04-14T03:27:41.755Z,140.77
2018-04-14T03:30:10.589Z,116.97
2018-04-14T03:32:39.843Z,121.37
2018-04-14T03:35:08.114Z,116.27
2018-04-14T03:37:37.236Z,119.53
2018-04-14T03:40:05.603Z,106.43
2018-04-14T03:42:35.189Z,106.27
2018-04-14T03:45:04.532Z,99.10
2018-04-14T03:47:33.129Z,95.20
2018-04-14T03:50:01.971Z,83.97
2018-04-14T03:52:30.251Z,94.53
2018-04-14T03:54:59.852Z,81.00
2018-04-14T03:57:28.128Z,70.03
2018-04-14T03:59:56.914Z,75.20
2018-04-14T04:02:25.307Z,70.03
2018-04-14T04:04:53.583Z,71.40
2018-04-14T04:07:21.871Z,62.63
2018-04-14T04:09:50.245Z,56.30
2018-04-14T04:12:18.834Z,55.50
2018-04-14T04:14:47.570Z,58.83
2018-04-14T04:17:15.885Z,61.13
2018-04-14T04:20:01.781Z,56.80
2018-04-14T04:22:47.743Z,53.07
2018-04-14T04:25:31.102Z,53.53
2018-04-14T04:28:00.593Z,47.57
2018-04-14T04:30:28.862Z,52.40
2018-04-14T04:32:57.912Z,54.40
2018-04-14T04:35:27.239Z,54.10
2018-04-14T04:37:57.407Z,47.27
2018-04-14T04:40:26.627Z,47.57
2018-04-14T04:42:56.724Z,36.53
2018-04-14T04:45:25.907Z,45.00
2018-04-14T04:47:54.319Z,35.43
2018-04-14T04:50:22.619Z,40.03
2018-04-14T04:52:50.900Z,40.03
2018-04-14T04:55:19.179Z,35.80
2018-04-14T04:57:47.506Z,39.50
2018-04-14T05:00:17.351Z,39.10
2018-04-14T05:02:45.627Z,36.40
2018-04-14T05:05:13.922Z,40.13
2018-04-14T05:07:42.219Z,43.40
2018-04-14T05:10:10.526Z,37.63
2018-04-14T05:12:39.879Z,36.17
2018-04-14T05:15:08.146Z,35.00
2018-04-14T05:17:36.987Z,35.80
2018-04-14T05:20:06.220Z,29.70
2018-04-14T05:22:35.363Z,28.10
2018-04-14T05:25:04.915Z,29.87
2018-04-14T05:27:33.922Z,22.77
2018-04-14T05:30:03.799Z,23.83
2018-04-14T05:32:34.780Z,24.80
2018-04-14T05:35:03.061Z,22.70
2018-04-14T05:37:32.352Z,18.30
2018-04-14T05:40:00.638Z,23.40
2018-04-14T05:42:28.906Z,20.10
2018-04-14T05:44:57.191Z,23.10
2018-04-14T05:47:26.499Z,15.60
2018-04-14T05:49:54.783Z,16.93
2018-04-14T05:52:23.251Z,18.10
2018-04-14T05:54:51.952Z,13.53
2018-04-14T05:57:20.730Z,17.63
2018-04-14T05:59:49.043Z,17.87
2018-04-14T06:02:18.123Z,12.90
2018-04-14T06:04:47.257Z,18.77
2018-04-14T06:07:18.482Z,15.10
2018-04-14T06:09:47.471Z,13.77
2018-04-14T06:12:18.354Z,14.40
2018-04-14T06:14:47.490Z,13.90
2018-04-14T06:17:15.758Z,16.57
2018-04-14T06:19:44.947Z,20.33
2018-04-14T06:22:13.285Z,20.20
2018-04-14T06:24:41.549Z,19.40
2018-04-14T06:27:09.833Z,17.83
2018-04-14T06:29:38.273Z,20.30
2018-04-14T06:32:07.320Z,17.30
2018-04-14T06:34:36.091Z,24.47
2018-04-14T06:37:04.847Z,17.93
2018-04-14T06:39:33.168Z,18.17
2018-04-14T06:42:03.437Z,22.50
2018-04-14T06:44:32.160Z,27.10
2018-04-14T06:47:00.419Z,20.80
2018-04-14T06:49:28.811Z,20.97
2018-04-14T06:51:57.725Z,21.20
2018-04-14T06:54:26.327Z,23.60
2018-04-14T06:56:56.628Z,18.77
2018-04-14T06:59:24.910Z,20.70
2018-04-14T07:01:53.607Z,20.13
2018-04-14T07:04:23.290Z,22.07
2018-04-14T07:06:51.868Z,20.47
2018-04-14T07:09:20.558Z,26.47
2018-04-14T07:11:48.838Z,19.77
2018-04-14T07:14:17.515Z,25.03
2018-04-14T07:16:45.914Z,23.60
2018-04-14T07:19:14.509Z,19.07
2018-04-14T07:21:43.439Z,20.73
2018-04-14T07:24:11.887Z,18.67
2018-04-14T07:26:40.695Z,23.77
2018-04-14T07:29:09.108Z,22.77
2018-04-14T07:31:37.520Z,20.90
2018-04-14T07:34:05.903Z,29.20
2018-04-14T07:36:35.134Z,26.30
2018-04-14T07:39:04.723Z,18.20
2018-04-14T07:41:33.010Z,25.50
2018-04-14T07:44:01.270Z,23.57
2018-04-14T07:46:29.711Z,24.43
2018-04-14T07:48:59.490Z,19.33
2018-04-14T07:51:28.543Z,23.97
2018-04-14T07:53:56.851Z,19.23
2018-04-14T07:56:25.743Z,25.80
2018-04-14T07:58:54.239Z,20.80
2018-04-14T08:01:23.598Z,18.00
2018-04-14T08:03:52.581Z,20.73
2018-04-14T08:06:20.864Z,19.83
2018-04-14T08:08:49.811Z,21.97
2018-04-14T08:11:19.804Z,21.80
2018-04-14T08:13:48.086Z,26.30
2018-04-14T08:16:16.547Z,23.17
2018-04-14T08:18:44.834Z,25.07
2018-04-14T08:21:13.142Z,19.30
2018-04-14T08:23:41.473Z,20.63
2018-04-14T08:26:10.499Z,16.97
2018-04-14T08:28:39.527Z,24.43
2018-04-14T08:31:07.954Z,24.97
2018-04-14T08:33:37.865Z,23.90
2018-04-14T08:36:07.083Z,27.30
2018-04-14T08:38:35.351Z,23.20
2018-04-14T08:41:03.628Z,24.77
2018-04-14T08:43:33.096Z,18.33
2018-04-14T08:46:03.306Z,22.80
2018-04-14T08:48:31.583Z,26.40
2018-04-14T08:51:00.647Z,34.33
2018-04-14T08:53:28.942Z,28.80
2018-04-14T08:55:59.030Z,30.50
2018-04-14T08:58:27.384Z,30.90
2018-04-14T09:00:55.934Z,26.47
2018-04-14T09:03:25.778Z,24.57
2018-04-14T09:05:54.058Z,30.30
2018-04-14T09:08:23.379Z,25.60
2018-04-14T09:10:52.457Z,33.00
2018-04-14T09:13:20.775Z,33.43
2018-04-14T09:15:51.912Z,38.37
2018-04-14T09:18:22.038Z,41.00
2018-04-14T09:20:50.307Z,30.83
2018-04-14T09:23:20.499Z,45.00
2018-04-14T09:25:48.879Z,40.80
2018-04-14T09:28:18.295Z,48.10
2018-04-14T09:30:47.284Z,41.03
2018-04-14T09:33:18.562Z,42.93
2018-04-14T09:35:48.145Z,34.07
2018-04-14T09:38:16.427Z,41.20
2018-04-14T09:40:44.734Z,48.67
2018-04-14T09:43:13.198Z,49.73
2018-04-14T09:45:41.562Z,41.37
2018-04-14T09:48:09.892Z,49.93
2018-04-14T09:50:38.933Z,51.63
2018-04-14T09:53:08.055Z,41.23
2018-04-14T09:55:36.686Z,56.70
2018-04-14T09:58:04.975Z,58.53
2018-04-14T10:00:33.259Z,50.87
2018-04-14T10:03:07.172Z,45.70
2018-04-14T10:05:35.462Z,63.03
2018-04-14T10:08:04.478Z,51.27
2018-04-14T10:10:32.794Z,61.60
2018-04-14T10:13:01.845Z,56.93
2018-04-14T10:15:30.103Z,51.03
2018-04-14T10:18:00.489Z,46.90
2018-04-14T10:20:30.546Z,49.40
2018-04-14T10:22:59.784Z,44.80
2018-04-14T10:25:28.986Z,60.43
2018-04-14T10:27:57.313Z,47.57
2018-04-14T10:30:27.449Z,36.77
2018-04-14T10:32:55.916Z,50.90
2018-04-14T10:35:24.258Z,35.87
2018-04-14T10:37:52.623Z,37.37
2018-04-14T10:40:22.493Z,31.97
2018-04-14T10:42:50.807Z,37.17
2018-04-14T10:45:19.093Z,34.07
2018-04-14T10:47:47.397Z,30.13
2018-04-14T10:50:16.526Z,38.40
2018-04-14T10:52:45.443Z,41.30
2018-04-14T10:55:13.724Z,29.40
2018-04-14T10:57:42.001Z,29.20
2018-04-14T11:00:10.275Z,30.40
2018-04-14T11:02:38.542Z,21.67
2018-04-14T11:05:08.812Z,28.13
2018-04-14T11:07:37.075Z,23.13
2018-04-14T11:10:05.543Z,24.93
2018-04-14T11:12:33.837Z,22.23
2018-04-14T11:15:02.793Z,18.20
2018-04-14T11:17:31.386Z,18.57
2018-04-14T11:20:00.390Z,21.00
2018-04-14T11:22:28.757Z,22.70
2018-04-14T11:24:57.120Z,26.97
2018-04-14T11:27:25.392Z,17.03
2018-04-14T11:29:54.967Z,15.97
2018-04-14T11:32:23.314Z,17.10
2018-04-14T11:34:53.230Z,12.97
2018-04-14T11:37:23.911Z,12.30
2018-04-14T11:39:52.947Z,13.63
2018-04-14T11:42:22.486Z,12.90
2018-04-14T11:44:51.557Z,12.73
2018-04-14T11:47:19.851Z,15.60
2018-04-14T11:49:48.432Z,13.80
2018-04-14T11:52:18.070Z,16.13
2018-04-14T11:54:46.337Z,12.37
2018-04-14T11:57:14.734Z,11.67
2018-04-14T11:59:43.812Z,21.50
2018-04-14T12:02:12.359Z,17.90
2018-04-14T12:04:40.651Z,15.90
2018-04-14T12:07:09.751Z,15.10
2018-04-14T12:09:39.996Z,21.90
2018-04-14T12:12:09.033Z,21.10
2018-04-14T12:14:37.338Z,18.03
2018-04-14T12:17:05.804Z,16.40
2018-04-14T12:19:34.147Z,26.23
2018-04-14T12:22:03.178Z,25.93
2018-04-14T12:24:31.463Z,20.60
2018-04-14T12:27:01.082Z,21.07
2018-04-14T12:29:30.161Z,25.53
2018-04-14T12:31:59.283Z,26.43
2018-04-14T12:34:27.646Z,17.73
2018-04-14T12:36:56.057Z,29.33
2018-04-14T12:39:25.143Z,24.47
2018-04-14T12:41:53.861Z,34.57
2018-04-14T12:44:22.755Z,27.30
2018-04-14T12:46:51.376Z,29.73
2018-04-14T12:49:19.688Z,31.60
2018-04-14T12:51:50.176Z,36.77
2018-04-14T12:54:18.643Z,37.93
2018-04-14T12:56:47.831Z,56.67
2018-04-14T12:59:16.150Z,70.70
2018-04-14T13:01:44.449Z,55.73
2018-04-14T13:04:13.539Z,65.70
2018-04-14T13:06:41.924Z,67.10
2018-04-14T13:09:11.889Z,74.23
2018-04-14T13:11:41.872Z,58.60
2018-04-14T13:14:10.480Z,80.07
2018-04-14T13:16:38.779Z,69.77
2018-04-14T13:19:07.208Z,73.23
2018-04-14T13:21:35.496Z,103.77
2018-04-14T13:24:04.182Z,82.57
2018-04-14T13:26:33.092Z,67.73
2018-04-14T13:29:01.411Z,67.10
2018-04-14T13:31:29.696Z,72.00
2018-04-14T13:33:58.514Z,57.97
2018-04-14T13:36:26.923Z,62.30
2018-04-14T13:38:55.191Z,50.83
2018-04-14T13:41:23.506Z,69.73
2018-04-14T13:43:53.450Z,53.67
2018-04-14T13:46:21.724Z,71.30
2018-04-14T13:48:50.112Z,68.67
2018-04-14T13:51:18.428Z,58.97
2018-04-14T13:53:47.411Z,63.07
2018-04-14T13:56:15.726Z,69.67
2018-04-14T13:58:44.041Z,90.97
2018-04-14T14:01:12.318Z,71.80
2018-04-14T14:03:40.798Z,83.13
2018-04-14T14:06:09.482Z,94.97
2018-04-14T14:08:37.762Z,77.60
2018-04-14T14:11:06.078Z,80.30
2018-04-14T14:13:34.345Z,102.63
2018-04-14T14:16:02.724Z,87.83
2018-04-14T14:18:32.106Z,87.20
2018-04-14T14:21:00.382Z,94.17
2018-04-14T14:23:28.655Z,97.80
2018-04-14T14:25:58.482Z,94.07
2018-04-14T14:28:26.750Z,85.37
2018-04-14T14:30:55.241Z,113.30
2018-04-14T14:33:23.518Z,134.33
2018-04-14T14:35:52.313Z,126.50
2018-04-14T14:38:20.778Z,164.90
2018-04-14T14:40:49.370Z,156.80
2018-04-14T14:43:17.652Z,154.17
2018-04-14T14:45:46.026Z,154.30
2018-04-14T14:48:14.554Z,135.10
2018-04-14T14:50:43.618Z,192.57
2018-04-14T14:53:11.927Z,141.97
2018-04-14T14:55:40.970Z,127.83
2018-04-14T14:58:09.286Z,166.10
2018-04-14T15:00:38.332Z,120.47
2018-04-14T15:03:06.807Z,145.20
2018-04-14T15:05:35.102Z,140.87
2018-04-14T15:08:03.452Z,150.37
2018-04-14T15:10:32.518Z,182.07
2018-04-14T15:13:01.631Z,163.00
2018-04-14T15:15:30.971Z,149.90
2018-04-14T15:17:59.242Z,144.07
2018-04-14T15:20:27.807Z,143.60
2018-04-14T15:22:56.987Z,156.43
2018-04-14T15:25:25.277Z,182.53
2018-04-14T15:27:54.346Z,149.27
2018-04-14T15:30:23.618Z,143.33
2018-04-14T15:32:51.916Z,154.37
2018-04-14T15:35:20.191Z,138.87
2018-04-14T15:37:48.486Z,156.10
2018-04-14T15:40:17.319Z,210.53
2018-04-14T15:42:47.249Z,150.83
2018-04-14T15:45:15.966Z,135.90
2018-04-14T15:47:44.639Z,142.70
2018-04-14T15:50:12.979Z,194.57
2018-04-14T15:52:42.006Z,172.67
2018-04-14T15:55:10.318Z,157.83
2018-04-14T15:57:38.603Z,154.23
2018-04-14T16:00:06.900Z,188.60
2018-04-14T16:02:36.049Z,162.63
2018-04-14T16:05:04.344Z,172.60
2018-04-14T16:07:32.610Z,180.30
2018-04-14T16:10:01.300Z,162.97
2018-04-14T16:12:29.925Z,200.47
2018-04-14T16:14:59.067Z,218.77
2018-04-14T16:17:28.145Z,199.23
2018-04-14T16:19:56.430Z,194.00
2018-04-14T16:22:24.727Z,190.93
2018-04-14T16:24:53.791Z,210.63
2018-04-14T16:27:22.068Z,226.37
2018-04-14T16:29:50.350Z,223.90
2018-04-14T16:32:18.745Z,189.53
2018-04-14T16:34:47.108Z,204.93
2018-04-14T16:37:15.851Z,220.10
2018-04-14T16:39:44.567Z,272.17
2018-04-14T16:42:13.629Z,251.30
2018-04-14T16:44:42.554Z,354.87
2018-04-14T16:47:10.890Z,243.57
2018-04-14T16:49:39.199Z,245.77
2018-04-14T16:52:08.248Z,223.90
2018-04-14T16:54:36.562Z,246.40
2018-04-14T16:57:04.854Z,241.17
2018-04-14T16:59:34.748Z,251.60
2018-04-14T17:02:03.042Z,227.90
2018-04-14T17:04:33.631Z,274.40
2018-04-14T17:07:01.939Z,268.60
2018-04-14T17:09:30.995Z,251.17
2018-04-14T17:11:59.334Z,239.07
2018-04-14T17:14:29.044Z,242.67
2018-04-14T17:16:58.836Z,242.47
2018-04-14T17:19:27.911Z,226.97
2018-04-14T17:21:56.324Z,238.70
2018-04-14T17:24:25.306Z,304.23
2018-04-14T17:26:55.490Z,226.23
2018-04-14T17:29:23.750Z,233.60
2018-04-14T17:31:53.606Z,238.23
2018-04-14T17:34:21.879Z,199.63
2018-04-14T17:36:50.454Z,225.27
2018-04-14T17:39:19.746Z,314.13
2018-04-14T17:41:48.131Z,253.63
2018-04-14T17:44:16.455Z,223.20
2018-04-14T17:46:45.038Z,254.73
2018-04-14T17:49:13.900Z,249.47
2018-04-14T17:51:42.903Z,268.10
2018-04-14T17:54:11.985Z,275.73
2018-04-14T17:56:40.266Z,242.57
2018-04-14T17:59:08.553Z,281.23
2018-04-14T18:01:37.153Z,258.57
2018-04-14T18:04:05.488Z,290.20
2018-04-14T18:06:34.946Z,280.93
2018-04-14T18:09:04.105Z,320.23
2018-04-14T18:11:33.118Z,249.67
2018-04-14T18:14:02.018Z,275.30
2018-04-14T18:16:30.991Z,253.60
2018-04-14T18:18:59.293Z,264.63
2018-04-14T18:21:27.770Z,247.57
2018-04-14T18:23:56.067Z,210.40
2018-04-14T18:26:24.527Z,274.63
2018-04-14T18:28:52.894Z,213.90
2018-04-14T18:31:21.180Z,254.40
2018-04-14T18:33:49.552Z,247.50
2018-04-14T18:36:18.040Z,325.80
2018-04-14T18:38:46.330Z,286.73
2018-04-14T18:41:15.246Z,275.03
2018-04-14T18:43:44.304Z,287.90
2018-04-14T18:46:12.727Z,296.23
2018-04-14T18:48:41.801Z,261.33
2018-04-14T18:51:10.083Z,233.33
2018-04-14T18:53:39.884Z,235.80
2018-04-14T18:56:08.274Z,299.93
2018-04-14T18:58:37.349Z,326.23
2018-04-14T19:01:05.654Z,286.63
2018-04-14T19:03:33.957Z,268.53
2018-04-14T19:06:03.017Z,291.43
2018-04-14T19:08:31.328Z,257.33
2018-04-14T19:11:00.396Z,296.77
2018-04-14T19:13:28.892Z,289.57
2018-04-14T19:15:58.098Z,271.33
2018-04-14T19:18:27.286Z,264.30
2018-04-14T19:20:55.691Z,306.43
2018-04-14T19:23:24.940Z,254.97
2018-04-14T19:25:53.207Z,216.50
2018-04-14T19:28:21.616Z,229.10
2018-04-14T19:30:50.363Z,214.10
2018-04-14T19:33:19.306Z,268.53
2018-04-14T19:35:47.869Z,210.10
2018-04-14T19:38:16.547Z,193.73
2018-04-14T19:40:44.844Z,216.97
2018-04-14T19:43:13.320Z,252.57
2018-04-14T19:45:42.253Z,286.10
2018-04-14T19:48:11.326Z,264.40
2018-04-14T19:50:39.607Z,235.77
2018-04-14T19:53:08.695Z,265.80
2018-04-14T19:55:36.990Z,235.47
2018-04-14T19:58:07.499Z,235.10
2018-04-14T20:00:36.179Z,248.77
2018-04-14T20:03:04.866Z,263.00
2018-04-14T20:05:33.173Z,255.70
2018-04-14T20:08:02.415Z,279.80
2018-04-14T20:10:31.321Z,282.97
2018-04-14T20:12:59.610Z,270.27
2018-04-14T20:15:27.893Z,293.50
2018-04-14T20:17:56.264Z,270.03
2018-04-14T20:20:24.536Z,293.60
2018-04-14T20:22:53.556Z,312.47
2018-04-14T20:25:21.866Z,277.10
2018-04-14T20:27:50.163Z,340.63
2018-04-14T20:30:18.450Z,325.07
2018-04-14T20:32:46.832Z,282.93
2018-04-14T20:35:15.111Z,270.57
2018-04-14T20:37:43.390Z,344.50
2018-04-14T20:40:11.677Z,300.77
2018-04-14T20:42:40.080Z,297.00
2018-04-14T20:45:08.683Z,332.23
2018-04-14T20:47:37.747Z,304.63
2018-04-14T20:50:06.331Z,342.17
2018-04-14T20:52:35.122Z,312.70
2018-04-14T20:55:03.436Z,293.70
2018-04-14T20:57:32.517Z,304.17
2018-04-14T21:00:00.812Z,251.30
2018-04-14T21:02:30.279Z,305.47
2018-04-14T21:04:58.595Z,360.23
2018-04-14T21:07:28.799Z,356.47
2018-04-14T21:09:57.324Z,341.87
2018-04-14T21:12:25.604Z,323.73
2018-04-14T21:14:53.908Z,316.77
2018-04-14T21:17:22.727Z,312.70
2018-04-14T21:19:51.013Z,331.20
2018-04-14T21:22:20.084Z,334.07
2018-04-14T21:24:48.509Z,338.53
2018-04-14T21:27:17.549Z,320.87
2018-04-14T21:29:45.934Z,355.13
2018-04-14T21:32:15.103Z,311.97
2018-04-14T21:34:44.550Z,361.30
2018-04-14T21:37:13.480Z,305.90
2018-04-14T21:39:42.541Z,286.83
2018-04-14T21:42:11.012Z,386.00
2018-04-14T21:44:40.523Z,337.90
2018-04-14T21:47:09.683Z,369.83
2018-04-14T21:49:37.978Z,342.63
2018-04-14T21:52:06.480Z,390.57
2018-04-14T21:54:35.688Z,305.80
2018-04-14T21:57:04.324Z,363.63
2018-04-14T21:59:32.623Z,339.83
2018-04-14T22:02:00.912Z,334.87
2018-04-14T22:04:29.173Z,395.57
2018-04-14T22:06:57.469Z,338.67
2018-04-14T22:09:26.500Z,327.60
2018-04-14T22:11:55.559Z,400.77
2018-04-14T22:14:34.095Z,364.33
2018-04-14T22:17:02.395Z,312.43
2018-04-14T22:19:31.447Z,342.10
2018-04-14T22:22:00.042Z,310.47
2018-04-14T22:24:28.991Z,382.73
2018-04-14T22:26:58.144Z,408.63
2018-04-14T22:29:27.418Z,359.90
2018-04-14T22:31:56.219Z,337.97
2018-04-14T22:34:25.355Z,339.40
2018-04-14T22:36:54.506Z,358.53
2018-04-14T22:39:23.255Z,402.77
2018-04-14T22:41:53.122Z,409.90
2018-04-14T22:44:21.618Z,315.27
2018-04-14T22:46:50.883Z,366.43
2018-04-14T22:49:19.163Z,380.43
2018-04-14T22:51:47.620Z,330.43
2018-04-14T22:54:16.653Z,350.93
2018-04-14T22:56:45.009Z,329.93
2018-04-14T22:59:14.188Z,357.03
2018-04-14T23:01:44.136Z,324.80
2018-04-14T23:04:12.818Z,395.90
2018-04-14T23:06:42.143Z,368.77
2018-04-14T23:09:10.796Z,370.53
2018-04-14T23:11:39.202Z,352.33
2018-04-14T23:14:07.474Z,328.13
2018-04-14T23:16:36.129Z,403.53
2018-04-14T23:19:04.458Z,361.93
2018-04-14T23:21:32.828Z,364.13
2018-04-14T23:24:01.212Z,370.03
2018-04-14T23:26:30.317Z,365.40
2018-04-14T23:28:58.600Z,329.23
2018-04-14T23:31:27.353Z,366.07
2018-04-14T23:33:56.399Z,289.20
2018-04-14T23:36:25.539Z,358.53
2018-04-14T23:38:53.975Z,401.60
2018-04-14T23:41:22.550Z,450.60
2018-04-14T23:43:50.838Z,291.97
2018-04-14T23:46:19.261Z,334.17
2018-04-14T23:48:47.743Z,352.50
2018-04-14T23:51:16.019Z,357.07
2018-04-14T23:53:45.219Z,367.33
2018-04-14T23:56:13.490Z,427.93
2018-04-14T23:58:42.693Z,326.50
